BAW9P EGLL-EGHQ
Flight info
| Callsign | BAW9P |
|---|---|
| Flight time | 0h 54m |
| Altitude | 23000 |
| Route | GASGU N866 SAM/N0387F240 L620 DAWLY |
| Aircraft | A388/J-SADE2E3FGHIJ3J4J5M1RWXY/LB1D1 |
Departure
| Time | 2026-05-09 20:19 |
|---|---|
| Airport | London Heathrow Airport (EGLL) |
Arrival
| Time | 2026-05-09 21:13 |
|---|---|
| Airport | Cornwall Airport Newquay (EGHQ) |
| Time | Latitude | Longitude | Altitude | Speed | Heading |
|---|---|---|---|---|---|
| 2026-05-09 19:46 | 51.47315 | -0.48244 | 96 ft | 0 kts | 90° |
| 2026-05-09 19:51 | 51.47315 | -0.48245 | 96 ft | 0 kts | 90° |
| 2026-05-09 19:58 | 51.47315 | -0.48246 | 91 ft | 0 kts | 90° |
| 2026-05-09 20:09 | 51.47315 | -0.48252 | 91 ft | 3 kts | 90° |
| 2026-05-09 20:09 | 51.47314 | -0.48294 | 91 ft | 3 kts | 90° |
| 2026-05-09 20:09 | 51.47315 | -0.48329 | 91 ft | 4 kts | 109° |
| 2026-05-09 20:09 | 51.47329 | -0.48357 | 94 ft | 4 kts | 170° |
| 2026-05-09 20:10 | 51.47354 | -0.48359 | 94 ft | 4 kts | 180° |
| 2026-05-09 20:10 | 51.47373 | -0.48359 | 94 ft | 0 kts | 180° |
| 2026-05-09 20:14 | 51.47334 | -0.48358 | 94 ft | 9 kts | 180° |
| 2026-05-09 20:14 | 51.47257 | -0.48358 | 94 ft | 13 kts | 179° |
| 2026-05-09 20:14 | 51.47155 | -0.48357 | 94 ft | 16 kts | 179° |
| 2026-05-09 20:14 | 51.47033 | -0.48354 | 94 ft | 19 kts | 179° |
| 2026-05-09 20:15 | 51.46896 | -0.48355 | 94 ft | 21 kts | 180° |
| 2026-05-09 20:15 | 51.46843 | -0.48355 | 93 ft | 0 kts | 179° |
| 2026-05-09 20:15 | 51.46841 | -0.48355 | 93 ft | 2 kts | 179° |
| 2026-05-09 20:15 | 51.46776 | -0.48358 | 91 ft | 10 kts | 200° |
| 2026-05-09 20:16 | 51.46734 | -0.48446 | 95 ft | 11 kts | 220° |
| 2026-05-09 20:16 | 51.46649 | -0.48467 | 91 ft | 14 kts | 179° |
| 2026-05-09 20:16 | 51.46619 | -0.48467 | 93 ft | 0 kts | 179° |
| 2026-05-09 20:17 | 51.46616 | -0.48467 | 91 ft | 3 kts | 179° |
| 2026-05-09 20:17 | 51.46534 | -0.48465 | 93 ft | 15 kts | 179° |
| 2026-05-09 20:17 | 51.46481 | -0.48376 | 94 ft | 12 kts | 92° |
| 2026-05-09 20:17 | 51.46480 | -0.48326 | 93 ft | 0 kts | 90° |
| 2026-05-09 20:18 | 51.46480 | -0.48276 | 93 ft | 29 kts | 90° |
| 2026-05-09 20:18 | 51.46482 | -0.47461 | 93 ft | 112 kts | 89° |
| 2026-05-09 20:19 | 51.46487 | -0.45925 | 116 ft | 157 kts | 89° |
| 2026-05-09 20:19 | 51.46512 | -0.44103 | 532 ft | 170 kts | 89° |
| 2026-05-09 20:19 | 51.46531 | -0.42120 | 944 ft | 184 kts | 90° |
| 2026-05-09 20:19 | 51.46225 | -0.40057 | 1108 ft | 210 kts | 115° |
| 2026-05-09 20:20 | 51.45345 | -0.38034 | 1656 ft | 229 kts | 125° |
| 2026-05-09 20:20 | 51.44305 | -0.35962 | 2349 ft | 245 kts | 125° |
| 2026-05-09 20:20 | 51.43161 | -0.33859 | 3145 ft | 258 kts | 138° |
| 2026-05-09 20:20 | 51.41508 | -0.32590 | 3979 ft | 272 kts | 167° |
| 2026-05-09 20:21 | 51.39619 | -0.32684 | 5024 ft | 275 kts | 194° |
| 2026-05-09 20:21 | 51.37875 | -0.34004 | 5692 ft | 280 kts | 214° |
| 2026-05-09 20:21 | 51.36345 | -0.35965 | 5930 ft | 283 kts | 222° |
| 2026-05-09 20:21 | 51.34915 | -0.38127 | 6279 ft | 283 kts | 224° |
| 2026-05-09 20:22 | 51.33484 | -0.40328 | 7119 ft | 283 kts | 223° |
| 2026-05-09 20:22 | 51.32065 | -0.42480 | 8136 ft | 282 kts | 222° |
| 2026-05-09 20:22 | 51.30773 | -0.44805 | 9061 ft | 284 kts | 236° |
| 2026-05-09 20:22 | 51.29916 | -0.47677 | 10086 ft | 284 kts | 252° |
| 2026-05-09 20:23 | 51.29356 | -0.50764 | 10683 ft | 299 kts | 253° |
| 2026-05-09 20:23 | 51.28739 | -0.54057 | 10957 ft | 320 kts | 252° |
| 2026-05-09 20:23 | 51.28078 | -0.57520 | 11310 ft | 336 kts | 252° |
| 2026-05-09 20:23 | 51.27393 | -0.61097 | 12144 ft | 337 kts | 252° |
| 2026-05-09 20:24 | 51.26705 | -0.64693 | 12965 ft | 339 kts | 252° |
| 2026-05-09 20:24 | 51.26008 | -0.68325 | 13658 ft | 345 kts | 252° |
| 2026-05-09 20:24 | 51.25303 | -0.71999 | 14374 ft | 348 kts | 252° |
| 2026-05-09 20:24 | 51.24589 | -0.75712 | 15039 ft | 351 kts | 252° |
| 2026-05-09 20:25 | 51.23868 | -0.79455 | 15747 ft | 354 kts | 252° |
| 2026-05-09 20:25 | 51.23142 | -0.83221 | 16416 ft | 357 kts | 252° |
| 2026-05-09 20:25 | 51.22407 | -0.87022 | 17105 ft | 360 kts | 251° |
| 2026-05-09 20:25 | 51.21664 | -0.90855 | 17775 ft | 363 kts | 251° |
| 2026-05-09 20:26 | 51.20703 | -0.94581 | 18395 ft | 364 kts | 240° |
| 2026-05-09 20:26 | 51.19302 | -0.97951 | 18950 ft | 366 kts | 230° |
| 2026-05-09 20:26 | 51.17525 | -1.00879 | 19512 ft | 368 kts | 223° |
| 2026-05-09 20:26 | 51.15660 | -1.03701 | 20055 ft | 371 kts | 223° |
| 2026-05-09 20:27 | 51.13792 | -1.06565 | 20605 ft | 373 kts | 223° |
| 2026-05-09 20:27 | 51.11912 | -1.09458 | 21159 ft | 376 kts | 224° |
| 2026-05-09 20:27 | 51.10027 | -1.12357 | 21699 ft | 379 kts | 223° |
| 2026-05-09 20:27 | 51.08144 | -1.15247 | 22206 ft | 381 kts | 223° |
| 2026-05-09 20:28 | 51.06225 | -1.18186 | 22742 ft | 384 kts | 223° |
| 2026-05-09 20:28 | 51.04287 | -1.21149 | 23019 ft | 389 kts | 223° |
| 2026-05-09 20:28 | 51.02309 | -1.24169 | 23051 ft | 401 kts | 223° |
| 2026-05-09 20:29 | 50.98198 | -1.30462 | 23049 ft | 413 kts | 226° |
| 2026-05-09 20:29 | 50.96404 | -1.34015 | 23048 ft | 413 kts | 236° |
| 2026-05-09 20:29 | 50.95044 | -1.38047 | 23050 ft | 415 kts | 246° |
| 2026-05-09 20:29 | 50.94153 | -1.42394 | 23053 ft | 416 kts | 254° |
| 2026-05-09 20:30 | 50.93421 | -1.46857 | 23047 ft | 419 kts | 253° |
| 2026-05-09 20:30 | 50.92670 | -1.51307 | 23043 ft | 418 kts | 253° |
| 2026-05-09 20:30 | 50.91908 | -1.55759 | 23054 ft | 418 kts | 253° |
| 2026-05-09 20:30 | 50.91144 | -1.60208 | 23057 ft | 418 kts | 253° |
| 2026-05-09 20:31 | 50.90379 | -1.64647 | 23055 ft | 418 kts | 253° |
| 2026-05-09 20:31 | 50.89611 | -1.69094 | 23055 ft | 418 kts | 253° |
| 2026-05-09 20:31 | 50.88842 | -1.73539 | 23053 ft | 418 kts | 253° |
| 2026-05-09 20:31 | 50.88082 | -1.77923 | 23049 ft | 418 kts | 253° |
| 2026-05-09 20:32 | 50.87306 | -1.82382 | 23050 ft | 418 kts | 253° |
| 2026-05-09 20:32 | 50.86532 | -1.86826 | 23047 ft | 418 kts | 253° |
| 2026-05-09 20:32 | 50.85756 | -1.91269 | 23070 ft | 419 kts | 253° |
| 2026-05-09 20:32 | 50.84975 | -1.95725 | 23067 ft | 419 kts | 253° |
| 2026-05-09 20:33 | 50.84195 | -2.00172 | 23068 ft | 419 kts | 253° |
| 2026-05-09 20:33 | 50.83414 | -2.04614 | 23066 ft | 419 kts | 253° |
| 2026-05-09 20:33 | 50.82632 | -2.09049 | 23068 ft | 419 kts | 253° |
| 2026-05-09 20:33 | 50.81847 | -2.13490 | 23064 ft | 417 kts | 253° |
| 2026-05-09 20:34 | 50.81079 | -2.17827 | 22801 ft | 403 kts | 253° |
| 2026-05-09 20:34 | 50.80332 | -2.22039 | 22423 ft | 392 kts | 253° |
| 2026-05-09 20:34 | 50.79601 | -2.26145 | 22066 ft | 385 kts | 253° |
| 2026-05-09 20:34 | 50.78876 | -2.30198 | 21803 ft | 383 kts | 253° |
| 2026-05-09 20:35 | 50.78158 | -2.34204 | 21550 ft | 383 kts | 253° |
| 2026-05-09 20:35 | 50.77429 | -2.38258 | 21292 ft | 383 kts | 253° |
| 2026-05-09 20:35 | 50.76700 | -2.42306 | 21028 ft | 382 kts | 253° |
| 2026-05-09 20:35 | 50.75975 | -2.46331 | 20774 ft | 380 kts | 253° |
| 2026-05-09 20:36 | 50.75250 | -2.50348 | 20518 ft | 379 kts | 253° |
| 2026-05-09 20:36 | 50.74527 | -2.54340 | 20259 ft | 377 kts | 253° |
| 2026-05-09 20:36 | 50.73804 | -2.58315 | 20019 ft | 376 kts | 252° |
| 2026-05-09 20:36 | 50.73080 | -2.62286 | 19773 ft | 375 kts | 252° |
| 2026-05-09 20:37 | 50.72359 | -2.66231 | 19531 ft | 373 kts | 252° |
| 2026-05-09 20:37 | 50.71646 | -2.70119 | 19286 ft | 372 kts | 252° |
| 2026-05-09 20:37 | 50.70927 | -2.74037 | 19048 ft | 371 kts | 252° |
| 2026-05-09 20:37 | 50.70210 | -2.77938 | 18809 ft | 369 kts | 252° |
| 2026-05-09 20:38 | 50.69497 | -2.81829 | 18572 ft | 368 kts | 252° |
| 2026-05-09 20:38 | 50.68790 | -2.85712 | 18137 ft | 367 kts | 251° |
| 2026-05-09 20:38 | 50.68074 | -2.89549 | 17769 ft | 360 kts | 251° |
| 2026-05-09 20:38 | 50.67383 | -2.93287 | 17429 ft | 351 kts | 252° |
| 2026-05-09 20:39 | 50.66709 | -2.96948 | 17079 ft | 343 kts | 251° |
| 2026-05-09 20:39 | 50.66047 | -3.00522 | 16742 ft | 336 kts | 251° |
| 2026-05-09 20:39 | 50.65404 | -3.03981 | 16406 ft | 330 kts | 251° |
| 2026-05-09 20:39 | 50.64765 | -3.07414 | 16070 ft | 324 kts | 251° |
| 2026-05-09 20:40 | 50.64134 | -3.10797 | 15739 ft | 319 kts | 251° |
| 2026-05-09 20:40 | 50.63513 | -3.14123 | 15417 ft | 314 kts | 251° |
| 2026-05-09 20:40 | 50.62897 | -3.17408 | 15094 ft | 310 kts | 252° |
| 2026-05-09 20:40 | 50.62286 | -3.20659 | 14777 ft | 308 kts | 252° |
| 2026-05-09 20:41 | 50.61681 | -3.23882 | 14461 ft | 305 kts | 252° |
| 2026-05-09 20:41 | 50.61081 | -3.27073 | 14151 ft | 304 kts | 252° |
| 2026-05-09 20:41 | 50.60470 | -3.30254 | 13837 ft | 303 kts | 252° |
| 2026-05-09 20:41 | 50.59878 | -3.33383 | 13488 ft | 302 kts | 252° |
| 2026-05-09 20:42 | 50.59279 | -3.36550 | 13152 ft | 301 kts | 252° |
| 2026-05-09 20:42 | 50.58697 | -3.39708 | 12842 ft | 300 kts | 252° |
| 2026-05-09 20:42 | 50.58105 | -3.42855 | 12574 ft | 299 kts | 252° |
| 2026-05-09 20:42 | 50.57507 | -3.45991 | 12331 ft | 299 kts | 252° |
| 2026-05-09 20:43 | 50.56930 | -3.49127 | 12072 ft | 298 kts | 253° |
| 2026-05-09 20:43 | 50.56413 | -3.52298 | 11785 ft | 298 kts | 255° |
| 2026-05-09 20:43 | 50.55918 | -3.55461 | 11477 ft | 297 kts | 255° |
| 2026-05-09 20:43 | 50.55424 | -3.58627 | 11179 ft | 297 kts | 255° |
| 2026-05-09 20:44 | 50.54922 | -3.61784 | 10891 ft | 298 kts | 255° |
| 2026-05-09 20:44 | 50.54416 | -3.64902 | 10596 ft | 298 kts | 255° |
| 2026-05-09 20:44 | 50.53890 | -3.68042 | 10317 ft | 294 kts | 255° |
| 2026-05-09 20:44 | 50.53366 | -3.71143 | 9887 ft | 294 kts | 255° |
| 2026-05-09 20:45 | 50.52868 | -3.74255 | 9434 ft | 293 kts | 255° |
| 2026-05-09 20:45 | 50.52308 | -3.77339 | 8923 ft | 295 kts | 251° |
| 2026-05-09 20:45 | 50.51624 | -3.80364 | 8558 ft | 292 kts | 250° |
| 2026-05-09 20:45 | 50.50942 | -3.83373 | 8142 ft | 291 kts | 250° |
| 2026-05-09 20:46 | 50.50494 | -3.85354 | 7868 ft | 288 kts | 250° |
| 2026-05-09 20:46 | 50.49822 | -3.88331 | 7252 ft | 290 kts | 250° |
| 2026-05-09 20:46 | 50.49149 | -3.91333 | 6758 ft | 290 kts | 250° |
| 2026-05-09 20:46 | 50.48486 | -3.94316 | 6299 ft | 289 kts | 250° |
| 2026-05-09 20:47 | 50.47828 | -3.97291 | 6110 ft | 288 kts | 250° |
| 2026-05-09 20:47 | 50.47166 | -4.00261 | 6079 ft | 289 kts | 250° |
| 2026-05-09 20:47 | 50.46501 | -4.03245 | 6081 ft | 289 kts | 250° |
| 2026-05-09 20:47 | 50.45835 | -4.06222 | 6080 ft | 289 kts | 250° |
| 2026-05-09 20:48 | 50.45173 | -4.09169 | 6079 ft | 290 kts | 250° |
| 2026-05-09 20:48 | 50.44503 | -4.12155 | 6081 ft | 289 kts | 250° |
| 2026-05-09 20:48 | 50.43836 | -4.15131 | 6055 ft | 288 kts | 249° |
| 2026-05-09 20:48 | 50.43125 | -4.18053 | 5768 ft | 287 kts | 241° |
| 2026-05-09 20:49 | 50.42060 | -4.20679 | 5469 ft | 282 kts | 234° |
| 2026-05-09 20:49 | 50.40960 | -4.23248 | 5156 ft | 283 kts | 234° |
| 2026-05-09 20:49 | 50.39865 | -4.25812 | 5081 ft | 283 kts | 234° |
| 2026-05-09 20:49 | 50.38762 | -4.28386 | 5077 ft | 285 kts | 234° |
| 2026-05-09 20:50 | 50.37657 | -4.30966 | 5075 ft | 285 kts | 234° |
| 2026-05-09 20:50 | 50.36550 | -4.33543 | 5073 ft | 285 kts | 234° |
| 2026-05-09 20:50 | 50.35454 | -4.36093 | 5076 ft | 285 kts | 234° |
| 2026-05-09 20:50 | 50.34344 | -4.38670 | 5075 ft | 286 kts | 234° |
| 2026-05-09 20:51 | 50.33232 | -4.41253 | 5081 ft | 287 kts | 234° |
| 2026-05-09 20:51 | 50.32126 | -4.43861 | 5025 ft | 287 kts | 234° |
| 2026-05-09 20:51 | 50.31024 | -4.46468 | 4860 ft | 284 kts | 235° |
| 2026-05-09 20:51 | 50.30223 | -4.49227 | 4749 ft | 275 kts | 259° |
| 2026-05-09 20:52 | 50.30185 | -4.52138 | 4623 ft | 261 kts | 275° |
| 2026-05-09 20:52 | 50.30288 | -4.54934 | 4380 ft | 255 kts | 275° |
| 2026-05-09 20:52 | 50.30380 | -4.57699 | 4077 ft | 254 kts | 274° |
| 2026-05-09 20:52 | 50.30554 | -4.60422 | 3739 ft | 250 kts | 289° |
| 2026-05-09 20:53 | 50.31233 | -4.62847 | 3593 ft | 246 kts | 300° |
| 2026-05-09 20:53 | 50.31978 | -4.65250 | 3503 ft | 245 kts | 296° |
| 2026-05-09 20:53 | 50.32305 | -4.67859 | 3509 ft | 243 kts | 280° |
| 2026-05-09 20:53 | 50.32859 | -4.70291 | 3492 ft | 231 kts | 303° |
| 2026-05-09 20:54 | 50.33691 | -4.72357 | 3510 ft | 219 kts | 308° |
| 2026-05-09 20:54 | 50.34490 | -4.74408 | 3507 ft | 222 kts | 304° |
| 2026-05-09 20:54 | 50.35285 | -4.76492 | 3502 ft | 223 kts | 306° |
| 2026-05-09 20:54 | 50.36061 | -4.78530 | 3300 ft | 205 kts | 305° |
| 2026-05-09 20:55 | 50.36734 | -4.80306 | 3015 ft | 177 kts | 307° |
| 2026-05-09 20:55 | 50.37345 | -4.81896 | 2792 ft | 166 kts | 308° |
| 2026-05-09 20:55 | 50.37927 | -4.83441 | 2449 ft | 164 kts | 308° |
| 2026-05-09 20:55 | 50.38481 | -4.84984 | 2070 ft | 156 kts | 307° |
| 2026-05-09 20:56 | 50.39026 | -4.86420 | 1881 ft | 153 kts | 313° |
| 2026-05-09 20:56 | 50.40154 | -4.89208 | 1470 ft | 152 kts | 310° |
| 2026-05-09 20:56 | 50.40698 | -4.90611 | 1355 ft | 151 kts | 308° |
| 2026-05-09 20:57 | 50.41227 | -4.92031 | 1293 ft | 151 kts | 311° |
| 2026-05-09 20:57 | 50.41766 | -4.93459 | 1144 ft | 155 kts | 316° |
| 2026-05-09 20:57 | 50.42287 | -4.94921 | 1082 ft | 158 kts | 309° |
| 2026-05-09 20:57 | 50.42872 | -4.96494 | 1533 ft | 172 kts | 305° |
| 2026-05-09 20:58 | 50.43421 | -4.98190 | 2021 ft | 176 kts | 303° |
| 2026-05-09 20:58 | 50.43913 | -5.00012 | 2360 ft | 190 kts | 299° |
| 2026-05-09 20:58 | 50.44460 | -5.01976 | 2621 ft | 206 kts | 299° |
| 2026-05-09 20:58 | 50.45072 | -5.04096 | 2886 ft | 214 kts | 299° |
| 2026-05-09 20:59 | 50.45699 | -5.06231 | 3012 ft | 220 kts | 299° |
| 2026-05-09 20:59 | 50.46346 | -5.08411 | 3000 ft | 221 kts | 299° |
| 2026-05-09 20:59 | 50.47129 | -5.10458 | 2995 ft | 216 kts | 320° |
| 2026-05-09 21:00 | 50.49734 | -5.11288 | 3002 ft | 192 kts | 27° |
| 2026-05-09 21:00 | 50.50941 | -5.10373 | 2999 ft | 193 kts | 29° |
| 2026-05-09 21:00 | 50.52149 | -5.09474 | 3000 ft | 192 kts | 29° |
| 2026-05-09 21:00 | 50.53360 | -5.08586 | 3001 ft | 191 kts | 29° |
| 2026-05-09 21:01 | 50.54563 | -5.07708 | 3003 ft | 189 kts | 29° |
| 2026-05-09 21:01 | 50.55739 | -5.06772 | 2998 ft | 191 kts | 37° |
| 2026-05-09 21:01 | 50.56474 | -5.05148 | 3005 ft | 186 kts | 73° |
| 2026-05-09 21:02 | 50.56412 | -5.01097 | 3002 ft | 191 kts | 89° |
| 2026-05-09 21:02 | 50.56345 | -4.99019 | 3004 ft | 191 kts | 89° |
| 2026-05-09 21:02 | 50.56286 | -4.96941 | 3004 ft | 189 kts | 89° |
| 2026-05-09 21:02 | 50.56225 | -4.94879 | 3003 ft | 188 kts | 89° |
| 2026-05-09 21:03 | 50.56152 | -4.92837 | 3002 ft | 187 kts | 89° |
| 2026-05-09 21:03 | 50.56057 | -4.90759 | 2998 ft | 190 kts | 96° |
| 2026-05-09 21:03 | 50.55457 | -4.88860 | 3015 ft | 201 kts | 120° |
| 2026-05-09 21:03 | 50.54661 | -4.87058 | 3007 ft | 199 kts | 119° |
| 2026-05-09 21:04 | 50.53893 | -4.85303 | 3003 ft | 196 kts | 119° |
| 2026-05-09 21:04 | 50.53122 | -4.83535 | 3002 ft | 196 kts | 119° |
| 2026-05-09 21:04 | 50.52336 | -4.81747 | 3125 ft | 196 kts | 120° |
| 2026-05-09 21:04 | 50.51560 | -4.79978 | 3369 ft | 197 kts | 119° |
| 2026-05-09 21:05 | 50.50790 | -4.78223 | 3503 ft | 198 kts | 119° |
| 2026-05-09 21:05 | 50.50007 | -4.76443 | 3502 ft | 198 kts | 119° |
| 2026-05-09 21:05 | 50.49226 | -4.74657 | 3504 ft | 198 kts | 119° |
| 2026-05-09 21:05 | 50.48441 | -4.72874 | 3504 ft | 198 kts | 120° |
| 2026-05-09 21:06 | 50.47657 | -4.71076 | 3504 ft | 199 kts | 119° |
| 2026-05-09 21:06 | 50.46878 | -4.69292 | 3505 ft | 198 kts | 119° |
| 2026-05-09 21:06 | 50.46074 | -4.67533 | 3508 ft | 201 kts | 127° |
| 2026-05-09 21:06 | 50.44844 | -4.66434 | 3510 ft | 213 kts | 162° |
| 2026-05-09 21:07 | 50.43345 | -4.66616 | 3510 ft | 225 kts | 197° |
| 2026-05-09 21:07 | 50.42019 | -4.67868 | 3520 ft | 225 kts | 210° |
| 2026-05-09 21:07 | 50.40727 | -4.69182 | 3367 ft | 216 kts | 209° |
| 2026-05-09 21:07 | 50.39524 | -4.70405 | 3221 ft | 195 kts | 209° |
| 2026-05-09 21:08 | 50.38435 | -4.71538 | 2919 ft | 185 kts | 209° |
| 2026-05-09 21:08 | 50.37385 | -4.72639 | 2555 ft | 182 kts | 209° |
| 2026-05-09 21:08 | 50.36435 | -4.73991 | 2500 ft | 190 kts | 238° |
| 2026-05-09 21:08 | 50.36133 | -4.75959 | 2509 ft | 186 kts | 270° |
| 2026-05-09 21:09 | 50.36201 | -4.77956 | 2496 ft | 181 kts | 286° |
| 2026-05-09 21:09 | 50.36616 | -4.79798 | 2500 ft | 178 kts | 301° |
| 2026-05-09 21:09 | 50.37193 | -4.81500 | 2501 ft | 177 kts | 306° |
| 2026-05-09 21:09 | 50.37828 | -4.83161 | 2492 ft | 177 kts | 307° |
| 2026-05-09 21:10 | 50.38461 | -4.84803 | 2430 ft | 178 kts | 308° |
| 2026-05-09 21:10 | 50.39070 | -4.86412 | 2157 ft | 165 kts | 308° |
| 2026-05-09 21:10 | 50.39646 | -4.87888 | 1920 ft | 153 kts | 310° |
| 2026-05-09 21:10 | 50.40178 | -4.89317 | 1722 ft | 151 kts | 309° |
| 2026-05-09 21:11 | 50.40716 | -4.90730 | 1514 ft | 151 kts | 311° |
| 2026-05-09 21:12 | 50.42889 | -4.96401 | 686 ft | 141 kts | 309° |
| 2026-05-09 21:12 | 50.43377 | -4.97742 | 483 ft | 136 kts | 307° |
| 2026-05-09 21:12 | 50.43836 | -4.98900 | 378 ft | 109 kts | 302° |
| 2026-05-09 21:12 | 50.44114 | -4.99630 | 359 ft | 52 kts | 301° |
| 2026-05-09 21:13 | 50.44326 | -5.00196 | 336 ft | 64 kts | 300° |
| 2026-05-09 21:13 | 50.44535 | -5.00748 | 322 ft | 55 kts | 303° |
| 2026-05-09 21:13 | 50.44633 | -5.01002 | 319 ft | 1 kts | 303° |
| 2026-05-09 21:13 | 50.44655 | -5.01024 | 316 ft | 10 kts | 340° |
| 2026-05-09 21:14 | 50.44672 | -5.01052 | 316 ft | 5 kts | 255° |
| 2026-05-09 21:14 | 50.44649 | -5.01061 | 317 ft | 4 kts | 125° |
| 2026-05-09 21:14 | 50.44611 | -5.00951 | 318 ft | 26 kts | 118° |
| 2026-05-09 21:14 | 50.44517 | -5.00708 | 322 ft | 25 kts | 121° |
| 2026-05-09 21:15 | 50.44434 | -5.00488 | 329 ft | 22 kts | 120° |
| 2026-05-09 21:15 | 50.44391 | -5.00401 | 333 ft | 7 kts | 185° |